sensor_id;sensor_type;location;lat;lon;timestamp;P1;durP1;ratioP1;P2;durP2;ratioP2
49440;SDS011;35317;51.978;6.296;2023-08-17T00:04:00;9.15;;;8.38;;
49440;SDS011;35317;51.978;6.296;2023-08-17T00:09:01;9.73;;;8.95;;
49440;SDS011;35317;51.978;6.296;2023-08-17T00:14:04;10.07;;;9.27;;
49440;SDS011;35317;51.978;6.296;2023-08-17T00:19:05;9.90;;;9.10;;
49440;SDS011;35317;51.978;6.296;2023-08-17T00:24:06;9.25;;;8.55;;
49440;SDS011;35317;51.978;6.296;2023-08-17T00:29:07;9.48;;;8.65;;
49440;SDS011;35317;51.978;6.296;2023-08-17T00:34:08;9.32;;;8.52;;
49440;SDS011;35317;51.978;6.296;2023-08-17T00:39:08;10.50;;;9.20;;
49440;SDS011;35317;51.978;6.296;2023-08-17T00:44:09;10.65;;;9.10;;
49440;SDS011;35317;51.978;6.296;2023-08-17T00:49:10;9.43;;;8.57;;
49440;SDS011;35317;51.978;6.296;2023-08-17T00:54:11;9.13;;;8.43;;
49440;SDS011;35317;51.978;6.296;2023-08-17T00:59:12;9.30;;;8.70;;
49440;SDS011;35317;51.978;6.296;2023-08-17T01:04:13;9.98;;;8.48;;
49440;SDS011;35317;51.978;6.296;2023-08-17T01:09:14;9.35;;;8.75;;
49440;SDS011;35317;51.978;6.296;2023-08-17T01:19:30;9.30;;;8.38;;
49440;SDS011;35317;51.978;6.296;2023-08-17T01:24:31;8.52;;;7.93;;
49440;SDS011;35317;51.978;6.296;2023-08-17T01:29:32;8.82;;;7.95;;
49440;SDS011;35317;51.978;6.296;2023-08-17T01:34:35;8.70;;;8.00;;
49440;SDS011;35317;51.978;6.296;2023-08-17T01:39:43;9.38;;;8.55;;
49440;SDS011;35317;51.978;6.296;2023-08-17T01:44:45;8.50;;;7.80;;
49440;SDS011;35317;51.978;6.296;2023-08-17T01:49:46;9.27;;;8.50;;
49440;SDS011;35317;51.978;6.296;2023-08-17T01:54:47;9.38;;;8.55;;
49440;SDS011;35317;51.978;6.296;2023-08-17T01:59:47;8.88;;;7.97;;
49440;SDS011;35317;51.978;6.296;2023-08-17T02:04:48;8.57;;;8.07;;
49440;SDS011;35317;51.978;6.296;2023-08-17T02:09:49;10.18;;;9.25;;
49440;SDS011;35317;51.978;6.296;2023-08-17T02:14:50;9.77;;;8.95;;
49440;SDS011;35317;51.978;6.296;2023-08-17T02:19:51;9.23;;;8.38;;
49440;SDS011;35317;51.978;6.296;2023-08-17T02:24:52;9.32;;;8.40;;
49440;SDS011;35317;51.978;6.296;2023-08-17T02:29:52;9.20;;;8.40;;
49440;SDS011;35317;51.978;6.296;2023-08-17T02:34:53;8.98;;;8.35;;
49440;SDS011;35317;51.978;6.296;2023-08-17T02:39:54;9.02;;;8.43;;
49440;SDS011;35317;51.978;6.296;2023-08-17T02:44:55;9.30;;;8.50;;
49440;SDS011;35317;51.978;6.296;2023-08-17T02:49:56;9.48;;;8.50;;
49440;SDS011;35317;51.978;6.296;2023-08-17T02:54:56;9.80;;;9.00;;
49440;SDS011;35317;51.978;6.296;2023-08-17T02:59:57;9.57;;;8.60;;
49440;SDS011;35317;51.978;6.296;2023-08-17T03:04:58;9.50;;;8.57;;
49440;SDS011;35317;51.978;6.296;2023-08-17T03:09:58;9.93;;;9.02;;
49440;SDS011;35317;51.978;6.296;2023-08-17T03:14:59;10.50;;;9.45;;
49440;SDS011;35317;51.978;6.296;2023-08-17T03:20:00;10.13;;;9.18;;
49440;SDS011;35317;51.978;6.296;2023-08-17T03:25:01;9.85;;;8.65;;
49440;SDS011;35317;51.978;6.296;2023-08-17T03:30:03;10.20;;;9.20;;
49440;SDS011;35317;51.978;6.296;2023-08-17T03:35:05;10.18;;;9.20;;
49440;SDS011;35317;51.978;6.296;2023-08-17T03:40:06;9.05;;;8.23;;
49440;SDS011;35317;51.978;6.296;2023-08-17T03:45:08;10.18;;;8.52;;
49440;SDS011;35317;51.978;6.296;2023-08-17T03:50:09;9.43;;;8.25;;
49440;SDS011;35317;51.978;6.296;2023-08-17T03:55:10;9.75;;;8.90;;
49440;SDS011;35317;51.978;6.296;2023-08-17T04:00:11;9.77;;;8.82;;
49440;SDS011;35317;51.978;6.296;2023-08-17T04:05:12;9.57;;;8.77;;
49440;SDS011;35317;51.978;6.296;2023-08-17T04:10:13;9.27;;;8.57;;
49440;SDS011;35317;51.978;6.296;2023-08-17T04:15:14;9.35;;;8.50;;
49440;SDS011;35317;51.978;6.296;2023-08-17T04:20:15;9.20;;;8.40;;
49440;SDS011;35317;51.978;6.296;2023-08-17T04:25:16;13.20;;;8.80;;
49440;SDS011;35317;51.978;6.296;2023-08-17T04:30:16;8.80;;;8.00;;
49440;SDS011;35317;51.978;6.296;2023-08-17T04:35:20;10.38;;;8.75;;
49440;SDS011;35317;51.978;6.296;2023-08-17T04:40:21;9.32;;;8.52;;
49440;SDS011;35317;51.978;6.296;2023-08-17T04:45:22;10.32;;;9.40;;
49440;SDS011;35317;51.978;6.296;2023-08-17T04:50:23;8.73;;;8.10;;
49440;SDS011;35317;51.978;6.296;2023-08-17T04:55:24;9.27;;;8.38;;
49440;SDS011;35317;51.978;6.296;2023-08-17T05:00:24;9.30;;;8.50;;
49440;SDS011;35317;51.978;6.296;2023-08-17T05:05:28;11.80;;;8.53;;
49440;SDS011;35317;51.978;6.296;2023-08-17T05:10:28;9.30;;;8.60;;
49440;SDS011;35317;51.978;6.296;2023-08-17T05:15:29;9.57;;;8.75;;
49440;SDS011;35317;51.978;6.296;2023-08-17T05:20:30;9.90;;;9.10;;
49440;SDS011;35317;51.978;6.296;2023-08-17T05:25:31;10.05;;;9.20;;
49440;SDS011;35317;51.978;6.296;2023-08-17T05:30:32;9.90;;;9.00;;
49440;SDS011;35317;51.978;6.296;2023-08-17T05:35:33;9.55;;;8.75;;
49440;SDS011;35317;51.978;6.296;2023-08-17T05:40:34;9.75;;;9.05;;
49440;SDS011;35317;51.978;6.296;2023-08-17T05:45:35;9.93;;;9.07;;
49440;SDS011;35317;51.978;6.296;2023-08-17T05:50:36;10.50;;;9.70;;
49440;SDS011;35317;51.978;6.296;2023-08-17T05:55:41;9.60;;;8.90;;
49440;SDS011;35317;51.978;6.296;2023-08-17T06:00:42;10.75;;;9.73;;
49440;SDS011;35317;51.978;6.296;2023-08-17T06:05:42;9.63;;;9.02;;
49440;SDS011;35317;51.978;6.296;2023-08-17T06:10:44;9.43;;;8.63;;
49440;SDS011;35317;51.978;6.296;2023-08-17T06:15:44;10.00;;;9.10;;
49440;SDS011;35317;51.978;6.296;2023-08-17T06:20:48;10.50;;;9.07;;
49440;SDS011;35317;51.978;6.296;2023-08-17T06:25:55;10.03;;;9.23;;
49440;SDS011;35317;51.978;6.296;2023-08-17T06:30:58;10.45;;;9.40;;
49440;SDS011;35317;51.978;6.296;2023-08-17T06:35:59;9.85;;;9.10;;
49440;SDS011;35317;51.978;6.296;2023-08-17T06:41:00;10.35;;;9.55;;
49440;SDS011;35317;51.978;6.296;2023-08-17T06:46:00;9.48;;;8.68;;
49440;SDS011;35317;51.978;6.296;2023-08-17T06:51:02;9.55;;;8.85;;
49440;SDS011;35317;51.978;6.296;2023-08-17T06:56:04;9.60;;;8.70;;
49440;SDS011;35317;51.978;6.296;2023-08-17T07:01:05;9.18;;;8.57;;
49440;SDS011;35317;51.978;6.296;2023-08-17T07:06:06;9.18;;;8.38;;
49440;SDS011;35317;51.978;6.296;2023-08-17T07:11:08;8.75;;;7.97;;
49440;SDS011;35317;51.978;6.296;2023-08-17T07:16:09;10.20;;;8.57;;
49440;SDS011;35317;51.978;6.296;2023-08-17T07:21:10;9.23;;;8.43;;
49440;SDS011;35317;51.978;6.296;2023-08-17T07:26:11;10.07;;;9.02;;
49440;SDS011;35317;51.978;6.296;2023-08-17T07:31:11;10.52;;;8.65;;
49440;SDS011;35317;51.978;6.296;2023-08-17T07:36:12;11.10;;;10.07;;
49440;SDS011;35317;51.978;6.296;2023-08-17T07:41:13;11.05;;;8.95;;
49440;SDS011;35317;51.978;6.296;2023-08-17T07:46:14;9.50;;;8.45;;
49440;SDS011;35317;51.978;6.296;2023-08-17T07:51:15;9.98;;;8.95;;
49440;SDS011;35317;51.978;6.296;2023-08-17T07:56:15;9.95;;;9.05;;
49440;SDS011;35317;51.978;6.296;2023-08-17T08:01:16;10.00;;;9.20;;
49440;SDS011;35317;51.978;6.296;2023-08-17T08:06:18;9.77;;;8.98;;
49440;SDS011;35317;51.978;6.296;2023-08-17T08:11:21;9.65;;;8.85;;
49440;SDS011;35317;51.978;6.296;2023-08-17T08:16:22;10.73;;;9.70;;
49440;SDS011;35317;51.978;6.296;2023-08-17T08:21:23;12.70;;;8.85;;
49440;SDS011;35317;51.978;6.296;2023-08-17T08:26:24;12.82;;;10.10;;
49440;SDS011;35317;51.978;6.296;2023-08-17T08:31:25;9.98;;;9.07;;
49440;SDS011;35317;51.978;6.296;2023-08-17T08:36:25;10.38;;;9.57;;
49440;SDS011;35317;51.978;6.296;2023-08-17T08:41:26;11.07;;;9.32;;
49440;SDS011;35317;51.978;6.296;2023-08-17T08:46:29;10.83;;;9.90;;
49440;SDS011;35317;51.978;6.296;2023-08-17T08:51:33;10.82;;;9.70;;
49440;SDS011;35317;51.978;6.296;2023-08-17T08:56:38;10.45;;;9.45;;
49440;SDS011;35317;51.978;6.296;2023-08-17T09:01:43;9.75;;;9.02;;
49440;SDS011;35317;51.978;6.296;2023-08-17T09:06:44;10.43;;;9.20;;
49440;SDS011;35317;51.978;6.296;2023-08-17T09:11:46;10.00;;;8.90;;
49440;SDS011;35317;51.978;6.296;2023-08-17T09:16:47;9.60;;;8.90;;
49440;SDS011;35317;51.978;6.296;2023-08-17T09:21:48;10.80;;;9.82;;
49440;SDS011;35317;51.978;6.296;2023-08-17T09:26:49;12.27;;;9.63;;
49440;SDS011;35317;51.978;6.296;2023-08-17T09:31:50;11.20;;;9.32;;
49440;SDS011;35317;51.978;6.296;2023-08-17T09:36:51;9.93;;;9.02;;
49440;SDS011;35317;51.978;6.296;2023-08-17T09:41:54;11.83;;;9.73;;
49440;SDS011;35317;51.978;6.296;2023-08-17T09:46:55;10.23;;;9.23;;
49440;SDS011;35317;51.978;6.296;2023-08-17T09:51:59;10.60;;;9.50;;
49440;SDS011;35317;51.978;6.296;2023-08-17T09:57:01;10.13;;;9.30;;
49440;SDS011;35317;51.978;6.296;2023-08-17T10:02:03;11.38;;;9.85;;
49440;SDS011;35317;51.978;6.296;2023-08-17T10:07:10;11.98;;;10.70;;
49440;SDS011;35317;51.978;6.296;2023-08-17T10:12:16;10.27;;;9.48;;
49440;SDS011;35317;51.978;6.296;2023-08-17T10:17:22;10.90;;;9.85;;
49440;SDS011;35317;51.978;6.296;2023-08-17T10:22:36;10.88;;;9.80;;
49440;SDS011;35317;51.978;6.296;2023-08-17T10:32:47;11.48;;;10.32;;
49440;SDS011;35317;51.978;6.296;2023-08-17T10:37:48;13.35;;;10.68;;
49440;SDS011;35317;51.978;6.296;2023-08-17T10:42:53;11.15;;;10.10;;
49440;SDS011;35317;51.978;6.296;2023-08-17T10:53:13;10.98;;;9.90;;
49440;SDS011;35317;51.978;6.296;2023-08-17T10:58:18;11.25;;;10.25;;
49440;SDS011;35317;51.978;6.296;2023-08-17T11:03:22;11.30;;;10.30;;
49440;SDS011;35317;51.978;6.296;2023-08-17T11:13:44;11.27;;;10.38;;
49440;SDS011;35317;51.978;6.296;2023-08-17T11:18:46;16.45;;;10.63;;
49440;SDS011;35317;51.978;6.296;2023-08-17T11:23:48;11.50;;;10.45;;
49440;SDS011;35317;51.978;6.296;2023-08-17T11:28:49;11.60;;;10.20;;
49440;SDS011;35317;51.978;6.296;2023-08-17T11:33:50;12.35;;;10.73;;
49440;SDS011;35317;51.978;6.296;2023-08-17T11:38:52;10.82;;;9.82;;
49440;SDS011;35317;51.978;6.296;2023-08-17T11:43:52;11.32;;;10.27;;
49440;SDS011;35317;51.978;6.296;2023-08-17T11:48:58;13.07;;;10.57;;
49440;SDS011;35317;51.978;6.296;2023-08-17T11:53:59;11.88;;;10.65;;
49440;SDS011;35317;51.978;6.296;2023-08-17T11:59:08;10.80;;;9.85;;
49440;SDS011;35317;51.978;6.296;2023-08-17T12:04:11;10.45;;;9.65;;
49440;SDS011;35317;51.978;6.296;2023-08-17T12:09:12;11.20;;;9.98;;
49440;SDS011;35317;51.978;6.296;2023-08-17T12:19:18;12.07;;;10.98;;
49440;SDS011;35317;51.978;6.296;2023-08-17T12:24:23;11.52;;;10.43;;
49440;SDS011;35317;51.978;6.296;2023-08-17T12:29:24;11.10;;;10.20;;
49440;SDS011;35317;51.978;6.296;2023-08-17T12:34:25;11.05;;;10.15;;
49440;SDS011;35317;51.978;6.296;2023-08-17T12:39:25;12.63;;;10.60;;
49440;SDS011;35317;51.978;6.296;2023-08-17T12:44:26;12.90;;;11.55;;
49440;SDS011;35317;51.978;6.296;2023-08-17T12:49:27;12.60;;;11.43;;
49440;SDS011;35317;51.978;6.296;2023-08-17T12:54:28;12.75;;;11.52;;
49440;SDS011;35317;51.978;6.296;2023-08-17T12:59:28;11.80;;;10.90;;
49440;SDS011;35317;51.978;6.296;2023-08-17T13:04:29;12.15;;;11.20;;
49440;SDS011;35317;51.978;6.296;2023-08-17T13:09:30;14.00;;;12.75;;
49440;SDS011;35317;51.978;6.296;2023-08-17T13:14:31;12.75;;;11.70;;
49440;SDS011;35317;51.978;6.296;2023-08-17T13:19:31;13.15;;;11.85;;
49440;SDS011;35317;51.978;6.296;2023-08-17T13:24:32;12.93;;;11.68;;
49440;SDS011;35317;51.978;6.296;2023-08-17T13:29:33;13.27;;;11.88;;
49440;SDS011;35317;51.978;6.296;2023-08-17T13:34:35;12.70;;;11.60;;
49440;SDS011;35317;51.978;6.296;2023-08-17T13:39:36;14.68;;;13.27;;
49440;SDS011;35317;51.978;6.296;2023-08-17T13:44:37;15.05;;;13.75;;
49440;SDS011;35317;51.978;6.296;2023-08-17T13:49:38;15.18;;;13.45;;
49440;SDS011;35317;51.978;6.296;2023-08-17T13:54:39;14.35;;;13.05;;
49440;SDS011;35317;51.978;6.296;2023-08-17T13:59:40;15.00;;;13.65;;
49440;SDS011;35317;51.978;6.296;2023-08-17T14:04:41;15.70;;;14.30;;
49440;SDS011;35317;51.978;6.296;2023-08-17T14:09:42;15.77;;;14.20;;
49440;SDS011;35317;51.978;6.296;2023-08-17T14:14:42;15.65;;;14.10;;
49440;SDS011;35317;51.978;6.296;2023-08-17T14:19:43;16.90;;;15.30;;
49440;SDS011;35317;51.978;6.296;2023-08-17T14:24:44;16.20;;;14.77;;
49440;SDS011;35317;51.978;6.296;2023-08-17T14:29:45;17.40;;;15.70;;
49440;SDS011;35317;51.978;6.296;2023-08-17T14:34:45;16.48;;;14.88;;
49440;SDS011;35317;51.978;6.296;2023-08-17T14:39:46;16.45;;;14.85;;
49440;SDS011;35317;51.978;6.296;2023-08-17T14:44:47;15.82;;;14.18;;
49440;SDS011;35317;51.978;6.296;2023-08-17T14:49:48;19.77;;;15.02;;
49440;SDS011;35317;51.978;6.296;2023-08-17T14:54:49;16.15;;;14.50;;
49440;SDS011;35317;51.978;6.296;2023-08-17T14:59:49;15.65;;;13.88;;
49440;SDS011;35317;51.978;6.296;2023-08-17T15:04:50;17.10;;;15.38;;
49440;SDS011;35317;51.978;6.296;2023-08-17T15:09:51;15.82;;;14.20;;
49440;SDS011;35317;51.978;6.296;2023-08-17T15:14:52;15.60;;;13.82;;
49440;SDS011;35317;51.978;6.296;2023-08-17T15:19:53;16.27;;;14.70;;
49440;SDS011;35317;51.978;6.296;2023-08-17T15:24:57;15.18;;;13.68;;
49440;SDS011;35317;51.978;6.296;2023-08-17T15:29:58;16.48;;;14.77;;
49440;SDS011;35317;51.978;6.296;2023-08-17T15:34:58;17.83;;;13.95;;
49440;SDS011;35317;51.978;6.296;2023-08-17T15:39:59;19.15;;;16.77;;
49440;SDS011;35317;51.978;6.296;2023-08-17T15:45:00;15.88;;;14.25;;
49440;SDS011;35317;51.978;6.296;2023-08-17T15:50:01;15.32;;;13.73;;
49440;SDS011;35317;51.978;6.296;2023-08-17T15:55:02;16.52;;;14.95;;
49440;SDS011;35317;51.978;6.296;2023-08-17T16:00:03;19.48;;;17.00;;
49440;SDS011;35317;51.978;6.296;2023-08-17T16:05:04;17.55;;;15.50;;
49440;SDS011;35317;51.978;6.296;2023-08-17T16:10:05;19.60;;;15.10;;
49440;SDS011;35317;51.978;6.296;2023-08-17T16:15:07;82.60;;;21.85;;
49440;SDS011;35317;51.978;6.296;2023-08-17T16:20:09;17.05;;;15.35;;
49440;SDS011;35317;51.978;6.296;2023-08-17T16:25:11;17.20;;;15.40;;
49440;SDS011;35317;51.978;6.296;2023-08-17T16:30:12;18.77;;;16.75;;
49440;SDS011;35317;51.978;6.296;2023-08-17T16:35:12;18.35;;;16.60;;
49440;SDS011;35317;51.978;6.296;2023-08-17T16:40:14;18.02;;;16.10;;
49440;SDS011;35317;51.978;6.296;2023-08-17T16:45:15;18.98;;;17.08;;
49440;SDS011;35317;51.978;6.296;2023-08-17T16:50:18;22.30;;;18.70;;
49440;SDS011;35317;51.978;6.296;2023-08-17T16:55:19;19.63;;;17.52;;
49440;SDS011;35317;51.978;6.296;2023-08-17T17:00:19;20.92;;;18.75;;
49440;SDS011;35317;51.978;6.296;2023-08-17T17:05:20;20.65;;;18.52;;
49440;SDS011;35317;51.978;6.296;2023-08-17T17:10:21;19.10;;;17.17;;
49440;SDS011;35317;51.978;6.296;2023-08-17T17:15:22;20.67;;;18.58;;
49440;SDS011;35317;51.978;6.296;2023-08-17T17:20:22;20.65;;;18.52;;
49440;SDS011;35317;51.978;6.296;2023-08-17T17:25:23;20.27;;;18.27;;
49440;SDS011;35317;51.978;6.296;2023-08-17T17:30:24;22.83;;;19.25;;
49440;SDS011;35317;51.978;6.296;2023-08-17T17:35:25;21.38;;;19.17;;
49440;SDS011;35317;51.978;6.296;2023-08-17T17:40:25;21.13;;;18.92;;
49440;SDS011;35317;51.978;6.296;2023-08-17T17:45:26;23.00;;;19.33;;
49440;SDS011;35317;51.978;6.296;2023-08-17T17:50:27;21.25;;;18.90;;
49440;SDS011;35317;51.978;6.296;2023-08-17T17:55:28;21.85;;;19.73;;
49440;SDS011;35317;51.978;6.296;2023-08-17T18:00:29;21.95;;;19.88;;
49440;SDS011;35317;51.978;6.296;2023-08-17T18:05:48;23.70;;;19.33;;
49440;SDS011;35317;51.978;6.296;2023-08-17T18:11:08;21.02;;;18.80;;
49440;SDS011;35317;51.978;6.296;2023-08-17T18:16:27;22.00;;;19.40;;
49440;SDS011;35317;51.978;6.296;2023-08-17T18:21:48;22.40;;;20.23;;
49440;SDS011;35317;51.978;6.296;2023-08-17T18:27:08;21.25;;;19.00;;
49440;SDS011;35317;51.978;6.296;2023-08-17T18:32:27;18.67;;;17.05;;
49440;SDS011;35317;51.978;6.296;2023-08-17T18:37:47;17.10;;;15.60;;
49440;SDS011;35317;51.978;6.296;2023-08-17T18:43:06;17.17;;;15.40;;
49440;SDS011;35317;51.978;6.296;2023-08-17T18:48:26;16.10;;;14.63;;
49440;SDS011;35317;51.978;6.296;2023-08-17T18:53:45;16.38;;;14.95;;
49440;SDS011;35317;51.978;6.296;2023-08-17T18:59:05;15.52;;;13.95;;
49440;SDS011;35317;51.978;6.296;2023-08-17T19:04:25;15.55;;;14.15;;
49440;SDS011;35317;51.978;6.296;2023-08-17T19:09:47;14.90;;;13.70;;
49440;SDS011;35317;51.978;6.296;2023-08-17T19:15:07;15.50;;;14.02;;
49440;SDS011;35317;51.978;6.296;2023-08-17T19:20:27;14.45;;;13.13;;
49440;SDS011;35317;51.978;6.296;2023-08-17T19:25:47;15.80;;;14.40;;
49440;SDS011;35317;51.978;6.296;2023-08-17T19:31:06;14.50;;;13.30;;
49440;SDS011;35317;51.978;6.296;2023-08-17T19:36:26;14.00;;;12.85;;
49440;SDS011;35317;51.978;6.296;2023-08-17T19:41:46;13.13;;;12.02;;
49440;SDS011;35317;51.978;6.296;2023-08-17T19:47:06;13.55;;;12.45;;
49440;SDS011;35317;51.978;6.296;2023-08-17T19:52:26;13.55;;;12.55;;
49440;SDS011;35317;51.978;6.296;2023-08-17T19:57:45;13.43;;;12.45;;
49440;SDS011;35317;51.978;6.296;2023-08-17T20:03:06;12.88;;;11.80;;
49440;SDS011;35317;51.978;6.296;2023-08-17T20:08:25;12.82;;;11.93;;
49440;SDS011;35317;51.978;6.296;2023-08-17T20:13:45;13.07;;;12.07;;
49440;SDS011;35317;51.978;6.296;2023-08-17T20:19:05;13.77;;;12.75;;
49440;SDS011;35317;51.978;6.296;2023-08-17T20:24:26;14.57;;;13.25;;
49440;SDS011;35317;51.978;6.296;2023-08-17T20:29:46;13.32;;;12.25;;
49440;SDS011;35317;51.978;6.296;2023-08-17T20:35:05;14.00;;;12.90;;
49440;SDS011;35317;51.978;6.296;2023-08-17T20:40:25;14.05;;;12.93;;
49440;SDS011;35317;51.978;6.296;2023-08-17T20:45:45;13.25;;;12.23;;
49440;SDS011;35317;51.978;6.296;2023-08-17T20:51:04;13.55;;;12.52;;
49440;SDS011;35317;51.978;6.296;2023-08-17T20:56:24;13.70;;;12.50;;
49440;SDS011;35317;51.978;6.296;2023-08-17T21:01:44;13.82;;;12.73;;
49440;SDS011;35317;51.978;6.296;2023-08-17T21:06:45;13.63;;;12.43;;
49440;SDS011;35317;51.978;6.296;2023-08-17T21:11:45;12.77;;;11.82;;
49440;SDS011;35317;51.978;6.296;2023-08-17T21:16:46;13.52;;;12.32;;
49440;SDS011;35317;51.978;6.296;2023-08-17T21:21:47;13.68;;;12.40;;
49440;SDS011;35317;51.978;6.296;2023-08-17T21:26:48;13.52;;;12.48;;
49440;SDS011;35317;51.978;6.296;2023-08-17T21:31:49;13.32;;;12.13;;
49440;SDS011;35317;51.978;6.296;2023-08-17T21:36:49;14.48;;;13.10;;
49440;SDS011;35317;51.978;6.296;2023-08-17T21:41:50;14.15;;;13.02;;
49440;SDS011;35317;51.978;6.296;2023-08-17T21:46:51;14.32;;;13.15;;
49440;SDS011;35317;51.978;6.296;2023-08-17T21:51:52;14.50;;;13.30;;
49440;SDS011;35317;51.978;6.296;2023-08-17T21:56:53;14.43;;;13.13;;
49440;SDS011;35317;51.978;6.296;2023-08-17T22:01:56;14.23;;;12.98;;
49440;SDS011;35317;51.978;6.296;2023-08-17T22:06:57;14.07;;;12.77;;
49440;SDS011;35317;51.978;6.296;2023-08-17T22:11:58;13.90;;;12.77;;
49440;SDS011;35317;51.978;6.296;2023-08-17T22:16:59;13.75;;;12.65;;
49440;SDS011;35317;51.978;6.296;2023-08-17T22:22:00;13.63;;;12.52;;
49440;SDS011;35317;51.978;6.296;2023-08-17T22:27:01;14.38;;;13.18;;
49440;SDS011;35317;51.978;6.296;2023-08-17T22:32:01;14.57;;;13.38;;
49440;SDS011;35317;51.978;6.296;2023-08-17T22:37:02;13.93;;;12.73;;
49440;SDS011;35317;51.978;6.296;2023-08-17T22:42:03;14.05;;;12.95;;
49440;SDS011;35317;51.978;6.296;2023-08-17T22:47:04;14.40;;;13.10;;
49440;SDS011;35317;51.978;6.296;2023-08-17T22:52:05;13.98;;;12.88;;
49440;SDS011;35317;51.978;6.296;2023-08-17T22:57:06;13.93;;;12.77;;
49440;SDS011;35317;51.978;6.296;2023-08-17T23:02:07;14.05;;;12.88;;
49440;SDS011;35317;51.978;6.296;2023-08-17T23:07:07;14.98;;;13.73;;
49440;SDS011;35317;51.978;6.296;2023-08-17T23:12:09;14.43;;;13.23;;
49440;SDS011;35317;51.978;6.296;2023-08-17T23:17:09;14.70;;;13.43;;
49440;SDS011;35317;51.978;6.296;2023-08-17T23:22:10;13.75;;;12.52;;
49440;SDS011;35317;51.978;6.296;2023-08-17T23:27:11;14.60;;;13.40;;
49440;SDS011;35317;51.978;6.296;2023-08-17T23:32:12;13.93;;;12.63;;
49440;SDS011;35317;51.978;6.296;2023-08-17T23:37:13;14.20;;;13.00;;
49440;SDS011;35317;51.978;6.296;2023-08-17T23:42:13;14.93;;;13.60;;
49440;SDS011;35317;51.978;6.296;2023-08-17T23:47:14;14.10;;;12.90;;
49440;SDS011;35317;51.978;6.296;2023-08-17T23:52:15;14.90;;;13.70;;
49440;SDS011;35317;51.978;6.296;2023-08-17T23:57:16;14.75;;;13.48;;
